Time;durP1;ratioP1;P1;durP2;ratioP2;P2;SDS_P1;SDS_P2;PMS_P1;PMS_P2;Temp;Humidity;BMP_temperature;BMP_pressure;BME280_temperature;BME280_humidity;BME280_pressure;Samples;Min_cycle;Max_cycle;Signal;HPM_P1;HPM_P2
2021/08/12 00:00:13;;;;;;;10.05;8.53;;;;;;;22.14;75.68;100371.02;1790505;79;20844;-77
2021/08/12 00:02:40;;;;;;;10.55;8.88;;;;;;;22.14;76.01;100377.69;1790522;80;21369;-78
2021/08/12 00:05:08;;;;;;;10.58;8.90;;;;;;;22.13;76.26;100382.20;1790610;80;20919;-77
2021/08/12 00:07:35;;;;;;;11.15;8.53;;;;;;;22.13;76.42;100385.39;1790673;79;21064;-78
2021/08/12 00:10:02;;;;;;;11.12;8.50;;;;;;;22.11;76.53;100383.39;1790542;80;21110;-78
2021/08/12 00:12:29;;;;;;;10.85;8.08;;;;;;;22.11;76.57;100393.56;1790590;80;21329;-77
2021/08/12 00:14:56;;;;;;;9.20;7.87;;;;;;;22.11;76.81;100386.06;1790511;78;20986;-78
2021/08/12 00:17:23;;;;;;;10.38;8.15;;;;;;;22.12;76.80;100388.57;1790461;80;20891;-77
2021/08/12 00:19:50;;;;;;;9.95;8.50;;;;;;;22.12;76.87;100392.58;1790834;80;20922;-77
2021/08/12 00:22:16;;;;;;;10.15;8.43;;;;;;;22.14;76.76;100393.72;1790755;80;22105;-77
2021/08/12 00:24:43;;;;;;;11.22;8.13;;;;;;;22.15;76.86;100394.06;1790508;80;20852;-77
2021/08/12 00:27:10;;;;;;;12.82;8.33;;;;;;;22.16;76.55;100390.38;1790802;80;20891;-77
2021/08/12 00:29:37;;;;;;;8.90;7.65;;;;;;;22.17;76.58;100388.05;1790583;80;21452;-78
2021/08/12 00:32:04;;;;;;;10.32;7.72;;;;;;;22.19;76.34;100394.53;1790747;80;20875;-78
2021/08/12 00:34:31;;;;;;;12.70;7.87;;;;;;;22.19;76.22;100391.38;1790585;80;21082;-78
2021/08/12 00:37:01;;;;;;;11.25;7.35;;;;;;;22.19;76.36;100395.39;1790704;80;20985;-77
2021/08/12 00:39:27;;;;;;;10.30;6.97;;;;;;;22.20;76.49;100406.90;1759960;80;20891;-78
2021/08/12 00:41:55;;;;;;;9.65;8.65;;;;;;;22.21;76.60;100403.20;1790854;79;20891;-77
2021/08/12 00:44:22;;;;;;;10.85;8.25;;;;;;;22.21;76.46;100395.19;1790634;80;20878;-77
2021/08/12 00:46:49;;;;;;;11.05;7.37;;;;;;;22.21;76.46;100404.06;1790769;79;21052;-76
2021/08/12 00:49:18;;;;;;;9.58;7.20;;;;;;;22.21;76.55;100400.53;1790335;80;20922;-77
2021/08/12 00:51:47;;;;;;;14.05;7.83;;;;;;;22.21;76.40;100397.86;1790794;80;20966;-77
2021/08/12 00:54:14;;;;;;;8.45;7.65;;;;;;;22.21;76.69;100398.72;1790439;80;20891;-78
2021/08/12 00:56:42;;;;;;;9.03;7.80;;;;;;;22.21;76.79;100396.53;1790868;79;20887;-77
2021/08/12 00:59:09;;;;;;;9.48;6.97;;;;;;;22.22;76.83;100400.91;1790509;80;21832;-77
2021/08/12 01:01:36;;;;;;;11.10;7.53;;;;;;;22.22;76.64;100391.56;1790762;80;20954;-76
2021/08/12 01:04:03;;;;;;;10.25;7.50;;;;;;;22.22;76.79;100397.73;1790470;80;20902;-78
2021/08/12 01:06:48;;;;;;;9.33;7.70;;;;;;;22.24;76.47;100394.90;1790768;80;20883;-78
2021/08/12 01:09:44;;;;;;;10.90;6.90;;;;;;;22.26;76.45;100402.23;1740992;82;20967;-78
2021/08/12 01:12:30;;;;;;;8.18;7.35;;;;;;;22.27;76.52;100397.20;1717791;83;21522;-77
2021/08/12 01:15:11;;;;;;;9.60;6.80;;;;;;;22.28;76.38;100399.72;1732162;81;21440;-77
2021/08/12 01:17:43;;;;;;;9.35;7.53;;;;;;;22.29;76.38;100401.37;1741303;81;20948;-77
2021/08/12 01:20:47;;;;;;;8.90;7.33;;;;;;;22.31;76.36;100400.69;1717633;83;21123;-78
2021/08/12 01:23:15;;;;;;;15.08;7.40;;;;;;;22.32;76.27;100392.17;1741455;82;26454;-78
2021/08/12 01:25:44;;;;;;;8.35;7.42;;;;;;;22.34;76.28;100394.16;1740840;82;21775;-77
2021/08/12 01:28:17;;;;;;;9.80;7.65;;;;;;;22.35;76.36;100398.52;1740880;82;21414;-78
2021/08/12 01:30:48;;;;;;;;;;;;;;;22.38;76.14;100394.66;1743889;81;21381;-77
2021/08/12 01:33:38;;;;;;;8.83;7.50;;;;;;;22.38;76.06;100396.82;1740948;82;20102;-78
2021/08/12 01:36:04;;;;;;;11.73;7.80;;;;;;;22.38;76.07;100399.49;1740418;82;20873;-77
2021/08/12 01:38:31;;;;;;;10.55;7.92;;;;;;;22.38;75.95;100390.14;1716391;82;22148;-77
2021/08/12 01:40:58;;;;;;;8.88;7.95;;;;;;;22.38;75.96;100388.80;1741226;82;20983;-77
2021/08/12 01:43:25;;;;;;;11.48;8.33;;;;;;;22.39;75.89;100393.64;1716337;81;21406;-77
2021/08/12 01:45:55;;;;;;;9.48;8.58;;;;;;;22.38;75.83;100394.15;1779380;78;20934;-78
2021/08/12 01:48:22;;;;;;;15.55;9.68;;;;;;;22.39;75.83;100398.98;1790539;80;20839;-77
2021/08/12 01:50:50;;;;;;;9.20;8.00;;;;;;;22.38;75.87;100393.33;1790786;80;21493;-77
2021/08/12 01:53:20;;;;;;;10.60;9.58;;;;;;;22.38;75.93;100399.49;1790629;80;20918;-77
2021/08/12 01:55:49;;;;;;;12.78;10.53;;;;;;;22.38;75.85;100402.16;1790751;80;20903;-77
2021/08/12 01:58:17;;;;;;;12.15;10.28;;;;;;;22.39;75.67;100400.32;1790610;80;20994;-78
2021/08/12 02:00:47;;;;;;;13.43;8.98;;;;;;;22.39;75.57;100400.32;1790867;78;20883;-77
2021/08/12 02:03:15;;;;;;;10.30;9.08;;;;;;;22.39;75.57;100398.50;1790495;79;21764;-77
2021/08/12 02:05:49;;;;;;;11.10;8.63;;;;;;;22.38;75.74;100396.82;1790641;79;20820;-77
2021/08/12 02:08:21;;;;;;;12.40;8.45;;;;;;;22.38;75.55;100395.99;1790503;80;21416;-77
2021/08/12 02:10:50;;;;;;;8.78;7.97;;;;;;;22.38;75.70;100402.67;1790811;80;20891;-77
2021/08/12 02:13:17;;;;;;;9.98;8.15;;;;;;;22.37;75.80;100405.86;1790579;80;20911;-77
2021/08/12 02:15:43;;;;;;;13.65;8.38;;;;;;;22.36;75.70;100413.53;1795019;79;21699;-77
2021/08/12 02:18:10;;;;;;;8.30;7.50;;;;;;;22.34;75.74;100402.18;1796275;80;20954;-76
2021/08/12 02:20:37;;;;;;;11.10;7.45;;;;;;;22.31;75.89;100401.20;1797031;80;20907;-78
2021/08/12 02:23:30;;;;;;;8.75;7.87;;;;;;;22.30;75.75;100402.22;1796415;80;20883;-77
2021/08/12 02:26:04;;;;;;;11.03;8.40;;;;;;;22.28;75.86;100406.39;1796178;78;21484;-76
2021/08/12 02:28:30;;;;;;;;;;;;;;;22.26;75.80;100408.91;1799141;78;21584;-77
2021/08/12 02:30:57;;;;;;;8.00;7.15;;;;;;;22.25;75.95;100414.73;1776375;80;20100;-77
2021/08/12 02:33:31;;;;;;;8.50;7.65;;;;;;;22.23;75.91;100422.12;1785040;80;20873;-78
2021/08/12 02:35:58;;;;;;;11.18;8.88;;;;;;;22.21;76.12;100420.09;1756699;79;20884;-78
2021/08/12 02:38:25;;;;;;;7.72;7.00;;;;;;;22.22;76.18;100430.30;1785267;80;21015;-77
2021/08/12 02:40:52;;;;;;;8.00;7.30;;;;;;;22.19;75.97;100431.45;1784840;79;22203;-77
2021/08/12 02:43:20;;;;;;;8.83;7.55;;;;;;;22.20;75.74;100433.61;1785162;79;20931;-79
2021/08/12 02:45:48;;;;;;;9.15;7.37;;;;;;;22.20;75.59;100435.77;1756489;80;20896;-78
2021/08/12 02:48:15;;;;;;;9.53;7.60;;;;;;;22.21;75.52;100431.25;1785174;80;20872;-78
2021/08/12 02:50:43;;;;;;;12.88;7.55;;;;;;;22.22;75.36;100439.65;1784789;80;21366;-78
2021/08/12 02:53:10;;;;;;;7.33;6.62;;;;;;;22.22;74.94;100439.14;1785139;79;21837;-80
2021/08/12 02:55:37;;;;;;;9.55;7.10;;;;;;;22.21;74.94;100436.59;1784936;80;20943;-79
2021/08/12 02:58:05;;;;;;;7.22;6.55;;;;;;;22.22;74.83;100436.98;1785325;79;21327;-80
2021/08/12 03:00:31;;;;;;;10.00;7.25;;;;;;;22.24;74.76;100444.32;1784908;80;20900;-77
2021/08/12 03:02:59;;;;;;;10.00;7.53;;;;;;;22.24;74.48;100442.47;1785142;80;20908;-76
2021/08/12 03:05:26;;;;;;;8.13;7.33;;;;;;;22.25;74.44;100448.13;1784943;80;21148;-78
2021/08/12 03:07:53;;;;;;;7.95;7.12;;;;;;;22.27;74.34;100458.66;1756976;80;20845;-78
2021/08/12 03:10:20;;;;;;;10.08;7.42;;;;;;;22.28;74.07;100457.16;1785412;80;20928;-78
2021/08/12 03:12:48;;;;;;;7.00;6.15;;;;;;;22.28;73.84;100455.82;1785288;80;21472;-78
2021/08/12 03:15:14;;;;;;;9.05;6.78;;;;;;;22.28;73.72;100457.16;1753507;81;20923;-78
2021/08/12 03:17:43;;;;;;;10.38;7.75;;;;;;;22.29;73.66;100461.48;1771749;79;21162;-78
2021/08/12 03:20:11;;;;;;;8.90;7.35;;;;;;;22.28;73.28;100458.49;1771866;81;20947;-78
2021/08/12 03:22:39;;;;;;;10.25;7.90;;;;;;;22.29;72.97;100458.81;1772093;81;20907;-78
2021/08/12 03:25:08;;;;;;;7.95;6.50;;;;;;;22.29;72.87;100466.00;1752389;81;21014;-78
2021/08/12 03:27:36;;;;;;;7.20;6.03;;;;;;;22.28;72.88;100478.53;1772941;80;20931;-79
2021/08/12 03:30:05;;;;;;;6.62;5.95;;;;;;;22.30;72.69;100479.19;1774140;80;21539;-80
2021/08/12 03:32:32;;;;;;;6.60;5.67;;;;;;;22.32;72.39;100480.33;1773061;81;20880;-80
2021/08/12 03:34:59;;;;;;;8.00;7.15;;;;;;;22.33;72.23;100484.18;1772404;81;20987;-79
2021/08/12 03:37:26;;;;;;;6.30;5.80;;;;;;;22.35;72.02;100484.84;1772098;81;20998;-79
2021/08/12 03:39:53;;;;;;;6.83;6.17;;;;;;;22.37;71.93;100487.35;1772310;81;20879;-79
2021/08/12 03:42:20;;;;;;;10.48;6.37;;;;;;;22.38;71.58;100489.00;1771934;79;21120;-79
2021/08/12 03:44:46;;;;;;;7.20;6.50;;;;;;;22.43;71.30;100493.83;1772029;80;21006;-79
2021/08/12 03:47:13;;;;;;;6.20;5.40;;;;;;;22.46;71.04;100492.17;1771907;81;20908;-80
2021/08/12 03:49:40;;;;;;;7.85;5.60;;;;;;;22.48;70.59;100491.50;1772059;81;20883;-79
2021/08/12 03:52:07;;;;;;;8.65;5.35;;;;;;;22.48;70.21;100488.31;1771832;81;20959;-79
2021/08/12 03:54:37;;;;;;;9.93;5.92;;;;;;;22.49;70.24;100489.97;1771793;81;21135;-79
2021/08/12 03:57:05;;;;;;;8.85;5.97;;;;;;;22.50;70.32;100490.80;1771820;81;20853;-80
2021/08/12 03:59:32;;;;;;;6.33;5.62;;;;;;;22.52;70.16;100491.45;1772127;81;20840;-78
2021/08/12 04:01:59;;;;;;;6.87;6.28;;;;;;;22.55;69.83;100501.81;1771830;80;21496;-79
2021/08/12 04:04:27;;;;;;;10.05;5.65;;;;;;;22.57;69.50;100494.46;1772099;81;20899;-79
2021/08/12 04:06:54;;;;;;;7.28;6.37;;;;;;;22.59;69.53;100496.94;1771870;81;22146;-80
2021/08/12 04:09:21;;;;;;;6.20;5.55;;;;;;;22.60;69.47;100500.78;1772082;79;20836;-78
2021/08/12 04:11:48;;;;;;;5.80;5.15;;;;;;;22.62;69.24;100498.77;1771889;80;20892;-77
2021/08/12 04:14:15;;;;;;;5.92;5.17;;;;;;;22.62;69.13;100500.63;1771979;81;21409;-78
2021/08/12 04:16:42;;;;;;;6.45;5.92;;;;;;;22.67;69.18;100516.97;1783700;80;20888;-78
2021/08/12 04:19:12;;;;;;;7.50;6.58;;;;;;;22.69;69.12;100515.78;1785266;79;21554;-79
2021/08/12 04:21:37;;;;;;;8.20;5.47;;;;;;;22.73;69.11;100519.77;1784955;79;20947;-79
2021/08/12 04:24:05;;;;;;;6.28;5.33;;;;;;;22.77;69.12;100517.59;1785625;80;20892;-80
2021/08/12 04:26:34;;;;;;;6.30;5.70;;;;;;;22.80;68.98;100521.25;1756608;80;20931;-79
2021/08/12 04:29:02;;;;;;;5.87;5.33;;;;;;;22.84;68.62;100521.75;1757329;80;20987;-78
2021/08/12 04:31:29;;;;;;;9.70;6.33;;;;;;;22.86;68.63;100516.55;1786663;80;21136;-80
2021/08/12 04:33:56;;;;;;;7.05;5.92;;;;;;;22.89;68.45;100516.70;1786029;79;21496;-79
2021/08/12 04:36:22;;;;;;;9.23;6.10;;;;;;;22.94;68.18;100519.19;1785291;79;20881;-79
2021/08/12 04:38:49;;;;;;;6.83;5.58;;;;;;;23.00;68.07;100519.01;1785131;80;20984;-79
2021/08/12 04:41:17;;;;;;;7.62;5.78;;;;;;;23.06;68.10;100518.83;1784922;80;20896;-80
2021/08/12 04:43:44;;;;;;;8.88;5.75;;;;;;;23.10;67.52;100519.63;1785006;80;21485;-79
2021/08/12 04:46:11;;;;;;;6.53;5.92;;;;;;;23.15;67.56;100515.09;1785129;79;21437;-80
2021/08/12 04:48:39;;;;;;;6.55;4.72;;;;;;;23.23;67.37;100521.70;1785097;80;21437;-78
2021/08/12 04:51:07;;;;;;;7.92;5.53;;;;;;;23.37;67.24;100514.77;1785093;80;20955;-77
2021/08/12 04:53:34;;;;;;;5.83;5.28;;;;;;;23.50;66.97;100513.67;1784997;79;20892;-78
2021/08/12 04:56:03;;;;;;;10.85;6.00;;;;;;;23.69;66.41;100515.52;1784856;80;21704;-79
2021/08/12 04:58:32;;;;;;;6.15;5.35;;;;;;;23.87;65.86;100511.20;1785111;80;20892;-78
2021/08/12 05:01:00;;;;;;;9.38;5.60;;;;;;;24.07;65.47;100514.20;1784839;80;21346;-77
2021/08/12 05:03:27;;;;;;;5.75;5.25;;;;;;;24.31;64.60;100511.77;1784809;80;20962;-81
2021/08/12 05:06:04;;;;;;;6.83;5.10;;;;;;;24.54;63.55;100513.03;1785049;80;20881;-79
2021/08/12 05:08:31;;;;;;;8.35;5.72;;;;;;;24.86;62.60;100509.63;1785167;80;21762;-79
2021/08/12 05:10:58;;;;;;;6.83;4.87;;;;;;;25.29;61.91;100513.73;1785206;80;20905;-79
2021/08/12 05:13:25;;;;;;;5.70;4.70;;;;;;;25.76;60.79;100508.27;1785877;80;20849;-78
2021/08/12 05:15:52;;;;;;;7.37;4.95;;;;;;;26.28;59.37;100515.58;1783425;80;20936;-78
2021/08/12 05:18:18;;;;;;;6.03;4.95;;;;;;;26.77;58.29;100511.42;1779584;80;20928;-79
2021/08/12 05:20:45;;;;;;;5.33;4.72;;;;;;;27.26;56.65;100519.77;1779132;80;21087;-78
2021/08/12 05:23:15;;;;;;;7.17;4.42;;;;;;;27.67;55.57;100509.33;1779084;79;20913;-77
2021/08/12 05:25:44;;;;;;;5.72;4.47;;;;;;;28.06;54.20;100509.56;1779178;80;21518;-78
2021/08/12 05:28:12;;;;;;;5.42;4.17;;;;;;;28.41;53.19;100514.13;1779205;80;20912;-79
2021/08/12 05:30:39;;;;;;;6.50;4.75;;;;;;;28.76;52.06;100508.95;1779153;79;20971;-78
2021/08/12 05:33:08;;;;;;;7.83;4.65;;;;;;;29.10;51.53;100518.56;1779271;80;22465;-77
2021/08/12 05:35:35;;;;;;;6.95;4.55;;;;;;;29.37;50.40;100519.74;1779090;80;21335;-78
2021/08/12 05:38:04;;;;;;;5.33;4.28;;;;;;;29.53;50.10;100520.05;1779153;79;20920;-78
2021/08/12 05:40:33;;;;;;;11.60;4.78;;;;;;;29.69;49.55;100525.45;1779094;80;20896;-78
2021/08/12 05:43:01;;;;;;;6.15;4.37;;;;;;;29.89;48.87;100521.23;1779132;80;20908;-78
2021/08/12 05:45:30;;;;;;;7.95;4.30;;;;;;;30.14;48.03;100521.72;1779363;79;21491;-78
2021/08/12 05:47:58;;;;;;;10.88;4.45;;;;;;;30.39;47.85;100523.57;1779244;80;20881;-78
2021/08/12 05:50:25;;;;;;;13.18;3.85;;;;;;;30.69;47.44;100520.41;1779470;80;20932;-77
2021/08/12 05:52:53;;;;;;;6.33;4.33;;;;;;;30.97;46.47;100520.38;1779133;79;20956;-78
2021/08/12 05:55:21;;;;;;;6.70;4.67;;;;;;;31.26;46.43;100524.66;1779134;80;20884;-79
2021/08/12 05:57:50;;;;;;;6.80;3.77;;;;;;;31.51;45.37;100528.59;1779062;80;21111;-78
2021/08/12 06:00:18;;;;;;;5.53;4.15;;;;;;;31.70;44.91;100532.03;1779529;80;20896;-80
2021/08/12 06:02:50;;;;;;;7.92;4.70;;;;;;;31.79;43.96;100530.62;1778998;80;20983;-80
2021/08/12 06:05:18;;;;;;;6.20;5.65;;;;;;;31.78;43.97;100529.80;1778685;80;20983;-78
2021/08/12 06:07:47;;;;;;;6.90;3.75;;;;;;;31.76;43.98;100529.20;1778995;79;21070;-77
2021/08/12 06:10:15;;;;;;;5.83;4.60;;;;;;;31.78;43.90;100533.87;1779127;80;21535;-79
2021/08/12 06:12:42;;;;;;;6.22;4.35;;;;;;;31.93;43.32;100528.52;1779120;79;21418;-79
2021/08/12 06:15:11;;;;;;;4.33;3.92;;;;;;;32.07;43.23;100527.24;1779015;79;20940;-79
2021/08/12 06:17:39;;;;;;;4.60;4.20;;;;;;;32.24;43.19;100522.44;1779342;80;20924;-80
2021/08/12 06:20:10;;;;;;;8.13;4.65;;;;;;;32.34;42.55;100515.88;1779036;79;21485;-80
2021/08/12 06:22:38;;;;;;;6.75;4.22;;;;;;;32.38;42.94;100524.67;1779124;80;21177;-74
2021/08/12 06:25:05;;;;;;;5.45;4.20;;;;;;;32.47;43.00;100520.23;1778915;80;20884;-73
2021/08/12 06:27:32;;;;;;;6.15;4.00;;;;;;;32.60;42.91;100524.89;1778611;80;20861;-73
2021/08/12 06:29:59;;;;;;;4.37;3.98;;;;;;;32.76;42.35;100523.84;1779058;80;20896;-73
2021/08/12 06:32:27;;;;;;;5.62;3.87;;;;;;;32.86;42.03;100524.55;1779165;80;20924;-73
2021/08/12 06:34:54;;;;;;;5.80;4.40;;;;;;;33.00;41.98;100532.73;1779004;79;21546;-74
2021/08/12 06:37:24;;;;;;;5.10;3.70;;;;;;;33.33;42.27;100527.07;1779100;80;21366;-73
2021/08/12 06:39:51;;;;;;;5.35;3.47;;;;;;;33.58;41.68;100531.63;1779224;80;20888;-74
2021/08/12 06:42:18;;;;;;;4.22;3.40;;;;;;;33.87;41.40;100526.09;1779408;79;20920;-74
2021/08/12 06:44:46;;;;;;;8.50;4.25;;;;;;;34.17;40.02;100530.35;1776969;80;20845;-74
2021/08/12 06:47:13;;;;;;;4.92;3.98;;;;;;;34.43;39.59;100528.80;1779664;80;21464;-74
2021/08/12 06:49:40;;;;;;;4.10;3.10;;;;;;;34.75;39.24;100526.23;1779267;79;20951;-74
2021/08/12 06:52:07;;;;;;;4.67;3.42;;;;;;;35.14;38.80;100529.39;1779745;80;20932;-72
2021/08/12 06:54:35;;;;;;;3.72;3.33;;;;;;;35.52;37.51;100535.17;1779099;79;20932;-74
2021/08/12 06:57:02;;;;;;;5.72;3.83;;;;;;;35.86;37.19;100533.02;1779543;80;20889;-74
2021/08/12 06:59:29;;;;;;;4.80;3.22;;;;;;;36.16;37.12;100530.77;1779252;80;21124;-74
2021/08/12 07:01:56;;;;;;;5.62;3.22;;;;;;;36.38;37.11;100521.86;1779112;80;20995;-74
2021/08/12 07:04:26;;;;;;;6.22;3.27;;;;;;;36.64;36.45;100522.81;1779055;79;21394;-75
2021/08/12 07:06:53;;;;;;;4.55;3.92;;;;;;;36.90;36.46;100531.89;1779237;79;20868;-74
2021/08/12 07:09:20;;;;;;;3.67;3.02;;;;;;;37.15;35.35;100536.34;1779168;80;21377;-73
2021/08/12 07:11:50;;;;;;;8.33;3.30;;;;;;;37.33;35.07;100538.53;1779478;80;21767;-75
2021/08/12 07:14:18;;;;;;;5.30;3.60;;;;;;;37.46;34.46;100535.81;1779075;80;20916;-74
2021/08/12 07:16:46;;;;;;;3.60;3.00;;;;;;;37.58;33.91;100535.59;1784054;79;21948;-74
2021/08/12 07:19:15;;;;;;;4.58;3.45;;;;;;;37.63;33.83;100535.02;1788268;80;20880;-74
2021/08/12 07:21:44;;;;;;;5.28;3.35;;;;;;;37.69;33.42;100536.66;1788288;80;20880;-74
2021/08/12 07:24:10;;;;;;;4.17;2.62;;;;;;;37.76;33.50;100539.13;1788332;80;21514;-74
2021/08/12 07:26:41;;;;;;;3.22;2.85;;;;;;;37.91;34.21;100550.61;1788193;80;20951;-74
2021/08/12 07:29:08;;;;;;;6.60;2.75;;;;;;;38.03;33.59;100544.30;1762033;80;20915;-75
2021/08/12 07:31:36;;;;;;;8.23;3.70;;;;;;;38.19;33.20;100549.19;1788353;80;20998;-73
2021/08/12 07:34:03;;;;;;;3.25;3.02;;;;;;;38.34;32.94;100549.69;1788551;80;20884;-74
2021/08/12 07:36:32;;;;;;;3.25;2.92;;;;;;;38.39;31.74;100544.19;1788322;80;21134;-74
2021/08/12 07:39:02;;;;;;;3.87;3.33;;;;;;;38.43;31.64;100540.34;1788355;80;20865;-73
2021/08/12 07:41:32;;;;;;;6.62;3.12;;;;;;;38.53;32.11;100534.83;1788496;80;21022;-75
2021/08/12 07:44:05;;;;;;;3.27;3.08;;;;;;;38.64;31.40;100533.68;1788342;80;20925;-75
2021/08/12 07:46:32;;;;;;;8.45;3.22;;;;;;;38.66;31.67;100527.92;1788421;80;21385;-74
2021/08/12 07:49:01;;;;;;;3.72;3.35;;;;;;;38.62;31.21;100538.65;1788246;80;21530;-74
2021/08/12 07:51:28;;;;;;;5.22;3.50;;;;;;;38.56;31.39;100533.73;1788189;80;20900;-76
2021/08/12 07:53:55;;;;;;;3.50;3.10;;;;;;;38.56;31.47;100534.29;1788956;80;20865;-73
2021/08/12 07:56:22;;;;;;;8.08;3.00;;;;;;;38.56;31.65;100532.92;1788361;80;20880;-74
2021/08/12 07:58:49;;;;;;;6.30;3.37;;;;;;;38.51;31.65;100537.03;1788815;80;21469;-73
2021/08/12 08:01:16;;;;;;;5.35;3.17;;;;;;;38.48;31.67;100538.98;1788275;80;21100;-73
2021/08/12 08:03:45;;;;;;;3.33;3.08;;;;;;;38.55;31.27;100536.74;1788274;80;20860;-74
2021/08/12 08:06:14;;;;;;;5.75;2.95;;;;;;;38.58;31.43;100527.13;1788303;80;20876;-75
2021/08/12 08:08:43;;;;;;;6.97;3.50;;;;;;;38.66;31.33;100535.59;1788279;80;20939;-75
2021/08/12 08:11:14;;;;;;;6.72;3.20;;;;;;;38.76;31.24;100532.80;1788323;80;21354;-73
2021/08/12 08:13:41;;;;;;;5.30;3.47;;;;;;;38.83;31.10;100531.68;1788299;80;21062;-72
2021/08/12 08:16:10;;;;;;;5.05;2.83;;;;;;;38.90;30.67;100535.73;1786877;80;22774;-73
2021/08/12 08:18:37;;;;;;;3.33;2.92;;;;;;;38.86;31.21;100536.59;1779332;80;20927;-73
2021/08/12 08:21:04;;;;;;;3.98;3.20;;;;;;;38.81;30.40;100535.25;1779213;80;20928;-74
2021/08/12 08:23:31;;;;;;;3.35;3.15;;;;;;;38.85;30.83;100540.45;1779103;80;21101;-74
2021/08/12 08:25:58;;;;;;;5.08;3.27;;;;;;;39.04;30.03;100538.69;1779302;80;21512;-74
2021/08/12 08:28:25;;;;;;;5.17;3.02;;;;;;;39.02;29.51;100538.18;1779162;80;20923;-75
2021/08/12 08:30:54;;;;;;;6.42;2.90;;;;;;;38.94;29.92;100544.25;1779089;80;20952;-74
2021/08/12 08:33:20;;;;;;;4.33;2.67;;;;;;;38.90;29.99;100550.00;1779221;80;21367;-74
2021/08/12 08:35:48;;;;;;;4.17;2.98;;;;;;;38.82;30.73;100546.48;1779242;80;20940;-77
2021/08/12 08:38:15;;;;;;;5.03;2.70;;;;;;;38.74;31.21;100543.23;1779121;80;21130;-75
2021/08/12 08:40:41;;;;;;;5.17;3.50;;;;;;;38.72;31.32;100550.10;1779164;80;20919;-73
2021/08/12 08:43:09;;;;;;;5.70;2.95;;;;;;;38.61;30.39;100545.78;1779136;80;21409;-74
2021/08/12 08:45:38;;;;;;;4.55;2.85;;;;;;;38.48;31.17;100554.05;1779334;80;20861;-75
2021/08/12 08:48:07;;;;;;;3.02;2.72;;;;;;;38.51;31.78;100550.73;1779265;80;21373;-75
2021/08/12 08:50:36;;;;;;;3.75;2.65;;;;;;;38.64;31.84;100548.75;1749492;80;21151;-73
2021/08/12 08:53:04;;;;;;;3.67;2.75;;;;;;;38.74;31.44;100556.94;1725290;80;21485;-74
2021/08/12 08:55:30;;;;;;;3.42;2.35;;;;;;;38.80;29.91;100555.00;1779340;80;21437;-73
2021/08/12 08:57:58;;;;;;;4.80;3.17;;;;;;;38.70;29.80;100559.97;1779027;80;20936;-74
2021/08/12 09:00:26;;;;;;;4.47;2.45;;;;;;;38.71;30.20;100556.67;1779382;80;21004;-73
2021/08/12 09:02:54;;;;;;;5.87;2.77;;;;;;;38.85;30.20;100568.67;1779060;80;20884;-74
2021/08/12 09:05:22;;;;;;;3.08;2.80;;;;;;;39.01;30.80;100566.69;1778962;79;20940;-75
2021/08/12 09:07:50;;;;;;;6.95;2.98;;;;;;;39.14;29.84;100569.36;1779137;79;20979;-74
2021/08/12 09:10:17;;;;;;;4.50;2.65;;;;;;;39.17;29.65;100572.89;1779313;79;20967;-76
2021/08/12 09:12:45;;;;;;;3.45;3.12;;;;;;;39.24;30.41;100572.02;1779103;79;20888;-74
2021/08/12 09:15:13;;;;;;;6.67;2.92;;;;;;;39.33;29.92;100570.86;1779058;80;21124;-75
2021/08/12 09:17:41;;;;;;;3.00;2.50;;;;;;;39.43;28.71;100575.50;1782748;80;20888;-74
2021/08/12 09:20:16;;;;;;;6.50;2.83;;;;;;;39.48;28.68;100579.56;1784842;80;20928;-75
2021/08/12 09:22:59;;;;;;;2.17;2.08;;;;;;;39.53;28.59;100577.61;1784792;80;21421;-79
2021/08/12 09:25:48;;;;;;;4.58;2.55;;;;;;;39.59;28.61;100576.44;1783988;80;21026;-76
2021/08/12 09:28:31;;;;;;;3.62;2.17;;;;;;;39.67;28.13;100574.20;1784834;80;21087;-76
2021/08/12 09:31:03;;;;;;;3.47;2.50;;;;;;;39.63;27.49;100577.25;1784868;80;20872;-75
2021/08/12 09:33:43;;;;;;;4.62;3.67;;;;;;;39.66;28.50;100584.91;1784976;80;20971;-75
2021/08/12 09:36:34;;;;;;;3.00;2.70;;;;;;;39.68;28.50;100583.50;1784885;80;20943;-75
2021/08/12 09:39:19;;;;;;;2.70;2.50;;;;;;;39.66;27.90;100590.39;1785091;80;21010;-75
2021/08/12 09:41:51;;;;;;;3.72;2.20;;;;;;;39.60;28.10;100596.50;1784872;80;22075;-76
2021/08/12 09:44:48;;;;;;;5.83;2.45;;;;;;;39.57;28.32;100600.61;1784865;80;20979;-77
2021/08/12 09:47:15;;;;;;;3.42;2.50;;;;;;;39.60;27.97;100596.50;1783762;80;20923;-74
2021/08/12 09:49:52;;;;;;;;;;;;;;;39.64;27.70;100596.73;1785291;79;20888;-77
2021/08/12 09:52:34;;;;;;;3.45;2.30;;;;;;;39.66;26.87;100593.95;1785013;79;20096;-76
2021/08/12 09:55:10;;;;;;;2.83;2.27;;;;;;;39.66;27.31;100592.58;1785092;80;21094;-75
2021/08/12 09:57:53;;;;;;;4.87;2.67;;;;;;;39.67;26.35;100589.30;1784894;79;20999;-76
2021/08/12 10:00:30;;;;;;;3.47;2.47;;;;;;;39.65;26.83;100581.91;1785060;80;20956;-76
2021/08/12 10:02:58;;;;;;;5.58;2.20;;;;;;;39.66;27.04;100589.02;1785512;80;20963;-75
2021/08/12 10:05:25;;;;;;;5.97;2.50;;;;;;;39.72;27.75;100598.86;1785104;80;20900;-76
2021/08/12 10:07:54;;;;;;;5.25;2.22;;;;;;;39.73;25.66;100593.63;1784892;80;21474;-76
2021/08/12 10:10:27;;;;;;;2.77;2.52;;;;;;;39.72;25.26;100587.32;1785064;79;20841;-77
2021/08/12 10:12:59;;;;;;;3.00;2.58;;;;;;;39.74;25.78;100591.16;1785089;79;20899;-76
2021/08/12 10:15:33;;;;;;;4.25;2.22;;;;;;;39.77;26.00;100584.52;1784837;79;21045;-81
2021/08/12 10:19:53;;;;;;;3.45;2.25;;;;;;;39.92;25.57;100584.97;1798536;79;22036;-75
2021/08/12 10:22:21;;;;;;;6.08;2.12;;;;;;;39.86;25.20;100579.25;1758515;80;21306;-80
2021/08/12 10:24:50;;;;;;;5.60;2.33;;;;;;;39.84;25.01;100584.21;1758396;81;20884;-82
2021/08/12 10:27:19;;;;;;;4.70;2.40;;;;;;;39.74;24.41;100587.04;1758454;81;20991;-78
2021/08/12 10:29:46;;;;;;;2.22;2.02;;;;;;;39.67;24.37;100589.30;1696392;83;20942;-78
2021/08/12 10:32:13;;;;;;;2.77;2.58;;;;;;;39.33;23.73;100592.81;1724836;83;20867;-79
2021/08/12 10:34:40;;;;;;;2.37;2.10;;;;;;;39.27;23.99;100594.78;1688208;83;20876;-78
2021/08/12 10:37:12;;;;;;;2.58;2.15;;;;;;;39.13;25.51;100594.61;1724932;82;20884;-77
2021/08/12 10:39:41;;;;;;;3.72;2.08;;;;;;;39.07;26.06;100585.33;1725103;81;20865;-75
2021/08/12 10:42:08;;;;;;;7.37;2.98;;;;;;;39.10;25.69;100592.98;1724982;83;21384;-78
2021/08/12 10:44:35;;;;;;;4.12;2.12;;;;;;;39.10;25.11;100591.05;1720239;83;21018;-78
2021/08/12 10:47:03;;;;;;;2.15;1.72;;;;;;;39.03;25.47;100589.17;1708509;82;20927;-76
2021/08/12 10:49:33;;;;;;;2.20;2.10;;;;;;;39.04;25.98;100596.28;1724705;81;21968;-77
2021/08/12 10:52:07;;;;;;;3.50;2.45;;;;;;;39.03;26.10;100593.84;1724736;83;20883;-78
2021/08/12 10:54:37;;;;;;;2.17;1.92;;;;;;;39.10;26.14;100596.53;1724866;83;20951;-76
2021/08/12 10:57:22;;;;;;;3.12;2.50;;;;;;;39.10;25.28;100593.78;1724938;83;20963;-76
2021/08/12 10:59:50;;;;;;;3.15;2.12;;;;;;;38.98;24.16;100594.70;1724746;83;20927;-77
2021/08/12 11:02:35;;;;;;;6.33;2.35;;;;;;;38.90;24.51;100603.48;1725053;83;21514;-79
2021/08/12 11:05:05;;;;;;;4.70;2.65;;;;;;;38.88;25.41;100607.86;1708355;82;20876;-78
2021/08/12 11:07:40;;;;;;;2.67;2.47;;;;;;;38.83;24.78;100602.97;1725079;83;20865;-76
2021/08/12 11:10:10;;;;;;;2.37;2.25;;;;;;;38.81;25.00;100599.69;1724755;83;21480;-75
2021/08/12 11:12:58;;;;;;;5.37;2.58;;;;;;;38.55;25.07;100607.48;1725021;83;21504;-73
2021/08/12 11:15:54;;;;;;;3.92;2.20;;;;;;;38.15;24.81;100613.83;1724856;83;21282;-75
2021/08/12 11:18:43;;;;;;;6.50;2.87;;;;;;;37.83;25.61;100603.98;1720925;83;20857;-78
2021/08/12 11:21:37;;;;;;;3.00;2.30;;;;;;;37.55;26.55;100599.87;1736698;82;20935;-74
2021/08/12 11:24:09;;;;;;;2.33;2.12;;;;;;;37.45;26.68;100598.48;1745092;81;20936;-73
2021/08/12 11:26:49;;;;;;;4.80;2.83;;;;;;;37.40;26.95;100600.67;1745339;81;20925;-72
2021/08/12 11:29:36;;;;;;;2.65;2.45;;;;;;;37.38;27.44;100604.77;1745119;82;22010;-74
2021/08/12 11:32:14;;;;;;;4.15;2.27;;;;;;;37.32;27.12;100595.72;1744642;82;20964;-73
2021/08/12 11:34:56;;;;;;;3.25;2.35;;;;;;;37.31;27.06;100593.55;1738578;82;20885;-74
2021/08/12 11:37:29;;;;;;;5.95;2.33;;;;;;;37.28;27.57;100593.25;1744606;80;20893;-72